sensor_id;sensor_type;location;lat;lon;timestamp;P1;durP1;ratioP1;P2;durP2;ratioP2
19173;SDS011;9719;49.322;8.536;2022-08-19T00:01:05;12.32;;;10.95;;
19173;SDS011;9719;49.322;8.536;2022-08-19T00:06:07;15.30;;;12.10;;
19173;SDS011;9719;49.322;8.536;2022-08-19T00:11:11;13.23;;;11.45;;
19173;SDS011;9719;49.322;8.536;2022-08-19T00:16:14;14.95;;;12.07;;
19173;SDS011;9719;49.322;8.536;2022-08-19T00:21:19;14.70;;;12.35;;
19173;SDS011;9719;49.322;8.536;2022-08-19T00:26:22;13.70;;;11.25;;
19173;SDS011;9719;49.322;8.536;2022-08-19T00:31:24;15.63;;;12.63;;
19173;SDS011;9719;49.322;8.536;2022-08-19T00:36:28;13.25;;;11.85;;
19173;SDS011;9719;49.322;8.536;2022-08-19T00:41:33;12.95;;;11.63;;
19173;SDS011;9719;49.322;8.536;2022-08-19T00:46:37;16.13;;;14.30;;
19173;SDS011;9719;49.322;8.536;2022-08-19T00:51:41;14.10;;;12.77;;
19173;SDS011;9719;49.322;8.536;2022-08-19T00:56:47;15.48;;;12.35;;
19173;SDS011;9719;49.322;8.536;2022-08-19T01:02:08;15.57;;;12.98;;
19173;SDS011;9719;49.322;8.536;2022-08-19T01:07:23;15.32;;;13.18;;
19173;SDS011;9719;49.322;8.536;2022-08-19T01:12:29;14.68;;;13.02;;
19173;SDS011;9719;49.322;8.536;2022-08-19T01:17:32;14.20;;;12.45;;
19173;SDS011;9719;49.322;8.536;2022-08-19T01:22:36;14.90;;;13.27;;
19173;SDS011;9719;49.322;8.536;2022-08-19T01:27:44;14.80;;;13.30;;
19173;SDS011;9719;49.322;8.536;2022-08-19T01:32:48;15.13;;;13.13;;
19173;SDS011;9719;49.322;8.536;2022-08-19T01:37:52;14.98;;;13.00;;
19173;SDS011;9719;49.322;8.536;2022-08-19T01:42:57;16.30;;;14.18;;
19173;SDS011;9719;49.322;8.536;2022-08-19T01:48:00;14.55;;;12.95;;
19173;SDS011;9719;49.322;8.536;2022-08-19T01:53:04;13.52;;;12.18;;
19173;SDS011;9719;49.322;8.536;2022-08-19T01:58:10;15.77;;;14.15;;
19173;SDS011;9719;49.322;8.536;2022-08-19T02:03:15;15.93;;;14.23;;
19173;SDS011;9719;49.322;8.536;2022-08-19T02:08:19;15.52;;;13.93;;
19173;SDS011;9719;49.322;8.536;2022-08-19T02:13:21;14.90;;;13.27;;
19173;SDS011;9719;49.322;8.536;2022-08-19T02:18:24;15.50;;;13.88;;
19173;SDS011;9719;49.322;8.536;2022-08-19T02:23:27;15.73;;;14.23;;
19173;SDS011;9719;49.322;8.536;2022-08-19T02:28:29;15.80;;;13.40;;
19173;SDS011;9719;49.322;8.536;2022-08-19T02:33:32;14.93;;;12.77;;
19173;SDS011;9719;49.322;8.536;2022-08-19T02:38:35;14.70;;;13.15;;
19173;SDS011;9719;49.322;8.536;2022-08-19T02:43:38;15.43;;;13.68;;
19173;SDS011;9719;49.322;8.536;2022-08-19T02:48:40;15.95;;;14.07;;
19173;SDS011;9719;49.322;8.536;2022-08-19T02:53:43;15.38;;;13.88;;
19173;SDS011;9719;49.322;8.536;2022-08-19T02:58:45;16.30;;;14.55;;
19173;SDS011;9719;49.322;8.536;2022-08-19T03:03:49;16.33;;;14.52;;
19173;SDS011;9719;49.322;8.536;2022-08-19T03:08:53;20.48;;;14.75;;
19173;SDS011;9719;49.322;8.536;2022-08-19T03:13:55;17.15;;;15.15;;
19173;SDS011;9719;49.322;8.536;2022-08-19T03:18:58;18.25;;;16.38;;
19173;SDS011;9719;49.322;8.536;2022-08-19T03:24:04;16.80;;;14.48;;
19173;SDS011;9719;49.322;8.536;2022-08-19T03:29:08;16.85;;;15.10;;
19173;SDS011;9719;49.322;8.536;2022-08-19T03:34:10;16.52;;;14.80;;
19173;SDS011;9719;49.322;8.536;2022-08-19T03:39:14;19.92;;;16.48;;
19173;SDS011;9719;49.322;8.536;2022-08-19T03:44:19;15.65;;;14.00;;
19173;SDS011;9719;49.322;8.536;2022-08-19T03:49:23;17.17;;;15.32;;
19173;SDS011;9719;49.322;8.536;2022-08-19T03:54:29;17.52;;;15.27;;
19173;SDS011;9719;49.322;8.536;2022-08-19T03:59:32;16.77;;;14.60;;
19173;SDS011;9719;49.322;8.536;2022-08-19T04:04:36;19.63;;;16.40;;
19173;SDS011;9719;49.322;8.536;2022-08-19T04:09:40;17.13;;;14.82;;
19173;SDS011;9719;49.322;8.536;2022-08-19T04:14:42;16.50;;;14.80;;
19173;SDS011;9719;49.322;8.536;2022-08-19T04:19:44;18.23;;;14.45;;
19173;SDS011;9719;49.322;8.536;2022-08-19T04:24:47;17.27;;;15.43;;
19173;SDS011;9719;49.322;8.536;2022-08-19T04:29:49;16.30;;;14.57;;
19173;SDS011;9719;49.322;8.536;2022-08-19T04:34:52;16.35;;;14.63;;
19173;SDS011;9719;49.322;8.536;2022-08-19T04:40:00;15.85;;;14.27;;
19173;SDS011;9719;49.322;8.536;2022-08-19T04:45:20;15.13;;;13.63;;
19173;SDS011;9719;49.322;8.536;2022-08-19T04:50:22;15.13;;;13.45;;
19173;SDS011;9719;49.322;8.536;2022-08-19T04:55:26;15.00;;;13.50;;
19173;SDS011;9719;49.322;8.536;2022-08-19T05:00:27;15.30;;;13.25;;
19173;SDS011;9719;49.322;8.536;2022-08-19T05:05:29;15.57;;;13.98;;
19173;SDS011;9719;49.322;8.536;2022-08-19T05:10:35;14.20;;;12.73;;
19173;SDS011;9719;49.322;8.536;2022-08-19T05:15:38;14.98;;;13.50;;
19173;SDS011;9719;49.322;8.536;2022-08-19T05:20:40;14.30;;;12.80;;
19173;SDS011;9719;49.322;8.536;2022-08-19T05:26:00;15.63;;;12.32;;
19173;SDS011;9719;49.322;8.536;2022-08-19T05:31:02;13.98;;;11.95;;
19173;SDS011;9719;49.322;8.536;2022-08-19T05:36:05;15.05;;;13.60;;
19173;SDS011;9719;49.322;8.536;2022-08-19T05:41:09;19.05;;;12.27;;
19173;SDS011;9719;49.322;8.536;2022-08-19T05:46:16;13.52;;;11.77;;
19173;SDS011;9719;49.322;8.536;2022-08-19T05:51:19;12.25;;;10.95;;
19173;SDS011;9719;49.322;8.536;2022-08-19T05:56:24;14.52;;;12.13;;
19173;SDS011;9719;49.322;8.536;2022-08-19T06:01:26;13.45;;;11.80;;
19173;SDS011;9719;49.322;8.536;2022-08-19T06:06:29;12.75;;;11.45;;
19173;SDS011;9719;49.322;8.536;2022-08-19T06:11:34;14.55;;;10.48;;
19173;SDS011;9719;49.322;8.536;2022-08-19T06:16:37;18.92;;;11.75;;
19173;SDS011;9719;49.322;8.536;2022-08-19T06:21:42;17.90;;;12.35;;
19173;SDS011;9719;49.322;8.536;2022-08-19T06:26:48;73.97;;;16.48;;
19173;SDS011;9719;49.322;8.536;2022-08-19T06:31:51;37.30;;;13.68;;
19173;SDS011;9719;49.322;8.536;2022-08-19T06:36:56;13.43;;;10.75;;
19173;SDS011;9719;49.322;8.536;2022-08-19T06:42:04;12.63;;;9.88;;
19173;SDS011;9719;49.322;8.536;2022-08-19T06:47:11;12.90;;;10.30;;
19173;SDS011;9719;49.322;8.536;2022-08-19T06:52:16;14.27;;;9.88;;
19173;SDS011;9719;49.322;8.536;2022-08-19T06:57:21;10.65;;;9.55;;
19173;SDS011;9719;49.322;8.536;2022-08-19T07:02:23;10.30;;;9.23;;
19173;SDS011;9719;49.322;8.536;2022-08-19T07:07:26;17.35;;;10.35;;
19173;SDS011;9719;49.322;8.536;2022-08-19T07:12:30;10.10;;;8.57;;
19173;SDS011;9719;49.322;8.536;2022-08-19T07:17:34;10.32;;;9.32;;
19173;SDS011;9719;49.322;8.536;2022-08-19T07:22:37;9.48;;;8.57;;
19173;SDS011;9719;49.322;8.536;2022-08-19T07:27:41;10.50;;;9.50;;
19173;SDS011;9719;49.322;8.536;2022-08-19T07:32:44;10.52;;;9.48;;
19173;SDS011;9719;49.322;8.536;2022-08-19T07:37:46;10.40;;;9.15;;
19173;SDS011;9719;49.322;8.536;2022-08-19T07:42:49;9.52;;;8.63;;
19173;SDS011;9719;49.322;8.536;2022-08-19T07:47:51;14.50;;;9.00;;
19173;SDS011;9719;49.322;8.536;2022-08-19T07:52:53;11.02;;;8.82;;
19173;SDS011;9719;49.322;8.536;2022-08-19T07:57:58;9.57;;;8.23;;
19173;SDS011;9719;49.322;8.536;2022-08-19T08:03:00;12.30;;;8.52;;
19173;SDS011;9719;49.322;8.536;2022-08-19T08:08:02;11.27;;;7.97;;
19173;SDS011;9719;49.322;8.536;2022-08-19T08:13:37;9.23;;;7.57;;
19173;SDS011;9719;49.322;8.536;2022-08-19T08:18:41;11.18;;;7.85;;
19173;SDS011;9719;49.322;8.536;2022-08-19T08:23:43;8.45;;;7.43;;
19173;SDS011;9719;49.322;8.536;2022-08-19T08:28:46;7.03;;;6.25;;
19173;SDS011;9719;49.322;8.536;2022-08-19T08:33:49;6.63;;;5.85;;
19173;SDS011;9719;49.322;8.536;2022-08-19T08:38:51;6.20;;;5.60;;
19173;SDS011;9719;49.322;8.536;2022-08-19T08:43:55;4.93;;;3.97;;
19173;SDS011;9719;49.322;8.536;2022-08-19T08:49:01;8.40;;;5.70;;
19173;SDS011;9719;49.322;8.536;2022-08-19T08:54:17;6.75;;;5.50;;
19173;SDS011;9719;49.322;8.536;2022-08-19T08:59:25;6.90;;;4.15;;
19173;SDS011;9719;49.322;8.536;2022-08-19T09:04:33;5.38;;;4.32;;
19173;SDS011;9719;49.322;8.536;2022-08-19T09:09:37;5.13;;;3.95;;
19173;SDS011;9719;49.322;8.536;2022-08-19T09:14:45;4.65;;;3.90;;
19173;SDS011;9719;49.322;8.536;2022-08-19T09:19:50;4.15;;;3.85;;
19173;SDS011;9719;49.322;8.536;2022-08-19T09:24:57;5.18;;;4.68;;
19173;SDS011;9719;49.322;8.536;2022-08-19T09:30:00;4.70;;;4.22;;
19173;SDS011;9719;49.322;8.536;2022-08-19T09:35:02;5.03;;;4.22;;
19173;SDS011;9719;49.322;8.536;2022-08-19T09:40:06;3.85;;;3.55;;
19173;SDS011;9719;49.322;8.536;2022-08-19T09:45:11;5.13;;;4.65;;
19173;SDS011;9719;49.322;8.536;2022-08-19T09:50:13;4.95;;;4.45;;
19173;SDS011;9719;49.322;8.536;2022-08-19T09:55:17;5.05;;;4.32;;
19173;SDS011;9719;49.322;8.536;2022-08-19T10:00:21;4.95;;;4.55;;
19173;SDS011;9719;49.322;8.536;2022-08-19T10:05:23;4.40;;;4.00;;
19173;SDS011;9719;49.322;8.536;2022-08-19T10:10:43;6.35;;;4.30;;
19173;SDS011;9719;49.322;8.536;2022-08-19T10:15:47;5.40;;;4.90;;
19173;SDS011;9719;49.322;8.536;2022-08-19T10:20:50;4.82;;;4.43;;
19173;SDS011;9719;49.322;8.536;2022-08-19T10:25:53;7.13;;;4.65;;
19173;SDS011;9719;49.322;8.536;2022-08-19T10:30:56;5.75;;;4.50;;
19173;SDS011;9719;49.322;8.536;2022-08-19T10:35:59;5.40;;;4.93;;
19173;SDS011;9719;49.322;8.536;2022-08-19T10:41:08;5.18;;;4.68;;
19173;SDS011;9719;49.322;8.536;2022-08-19T10:46:14;4.35;;;3.95;;
19173;SDS011;9719;49.322;8.536;2022-08-19T10:51:16;5.35;;;4.85;;
19173;SDS011;9719;49.322;8.536;2022-08-19T10:56:36;4.95;;;4.55;;
19173;SDS011;9719;49.322;8.536;2022-08-19T11:01:58;4.75;;;4.35;;
19173;SDS011;9719;49.322;8.536;2022-08-19T11:07:02;4.60;;;4.20;;
19173;SDS011;9719;49.322;8.536;2022-08-19T11:12:05;4.55;;;4.15;;
19173;SDS011;9719;49.322;8.536;2022-08-19T11:17:08;5.57;;;4.78;;
19173;SDS011;9719;49.322;8.536;2022-08-19T11:22:13;4.50;;;4.20;;
19173;SDS011;9719;49.322;8.536;2022-08-19T11:27:15;7.28;;;4.93;;
19173;SDS011;9719;49.322;8.536;2022-08-19T11:32:18;5.28;;;4.45;;
19173;SDS011;9719;49.322;8.536;2022-08-19T11:37:20;5.88;;;5.28;;
19173;SDS011;9719;49.322;8.536;2022-08-19T11:42:22;4.90;;;4.60;;
19173;SDS011;9719;49.322;8.536;2022-08-19T11:47:45;4.85;;;4.50;;
19173;SDS011;9719;49.322;8.536;2022-08-19T11:52:48;14.35;;;4.88;;
19173;SDS011;9719;49.322;8.536;2022-08-19T11:57:50;4.40;;;4.03;;
19173;SDS011;9719;49.322;8.536;2022-08-19T12:02:53;4.25;;;3.95;;
19173;SDS011;9719;49.322;8.536;2022-08-19T12:07:55;7.68;;;4.63;;
19173;SDS011;9719;49.322;8.536;2022-08-19T12:12:58;3.17;;;2.85;;
19173;SDS011;9719;49.322;8.536;2022-08-19T12:18:01;3.17;;;2.90;;
19173;SDS011;9719;49.322;8.536;2022-08-19T12:23:07;4.50;;;3.33;;
19173;SDS011;9719;49.322;8.536;2022-08-19T12:28:12;4.70;;;3.13;;
19173;SDS011;9719;49.322;8.536;2022-08-19T12:33:17;3.15;;;2.95;;
19173;SDS011;9719;49.322;8.536;2022-08-19T12:38:25;3.47;;;3.28;;
19173;SDS011;9719;49.322;8.536;2022-08-19T12:43:42;3.55;;;2.97;;
19173;SDS011;9719;49.322;8.536;2022-08-19T12:48:52;3.72;;;3.22;;
19173;SDS011;9719;49.322;8.536;2022-08-19T12:53:57;3.08;;;2.78;;
19173;SDS011;9719;49.322;8.536;2022-08-19T12:59:01;3.28;;;2.70;;
19173;SDS011;9719;49.322;8.536;2022-08-19T13:04:06;8.57;;;3.83;;
19173;SDS011;9719;49.322;8.536;2022-08-19T13:09:09;3.60;;;2.97;;
19173;SDS011;9719;49.322;8.536;2022-08-19T13:14:11;2.95;;;2.22;;
19173;SDS011;9719;49.322;8.536;2022-08-19T13:19:15;2.83;;;2.58;;
19173;SDS011;9719;49.322;8.536;2022-08-19T13:24:21;2.63;;;2.42;;
19173;SDS011;9719;49.322;8.536;2022-08-19T13:29:24;8.90;;;3.53;;
19173;SDS011;9719;49.322;8.536;2022-08-19T13:34:47;2.67;;;2.45;;
19173;SDS011;9719;49.322;8.536;2022-08-19T13:39:51;2.45;;;2.25;;
19173;SDS011;9719;49.322;8.536;2022-08-19T13:44:59;5.10;;;2.55;;
19173;SDS011;9719;49.322;8.536;2022-08-19T13:50:04;8.55;;;2.85;;
19173;SDS011;9719;49.322;8.536;2022-08-19T13:55:13;2.80;;;2.60;;
19173;SDS011;9719;49.322;8.536;2022-08-19T14:00:20;2.42;;;2.28;;
19173;SDS011;9719;49.322;8.536;2022-08-19T14:05:29;2.42;;;2.22;;
19173;SDS011;9719;49.322;8.536;2022-08-19T14:10:33;2.22;;;2.13;;
19173;SDS011;9719;49.322;8.536;2022-08-19T14:15:38;2.63;;;2.33;;
19173;SDS011;9719;49.322;8.536;2022-08-19T14:20:42;2.67;;;2.20;;
19173;SDS011;9719;49.322;8.536;2022-08-19T14:36:07;3.25;;;2.88;;
19173;SDS011;9719;49.322;8.536;2022-08-19T14:41:10;1.88;;;1.77;;
19173;SDS011;9719;49.322;8.536;2022-08-19T14:46:18;2.97;;;2.70;;
19173;SDS011;9719;49.322;8.536;2022-08-19T14:51:23;2.30;;;2.10;;
19173;SDS011;9719;49.322;8.536;2022-08-19T14:56:27;2.40;;;2.20;;
19173;SDS011;9719;49.322;8.536;2022-08-19T15:01:31;2.65;;;1.95;;
19173;SDS011;9719;49.322;8.536;2022-08-19T15:06:35;2.55;;;2.20;;
19173;SDS011;9719;49.322;8.536;2022-08-19T15:11:37;3.25;;;2.53;;
19173;SDS011;9719;49.322;8.536;2022-08-19T15:16:39;2.50;;;2.22;;
19173;SDS011;9719;49.322;8.536;2022-08-19T15:21:43;3.72;;;2.45;;
19173;SDS011;9719;49.322;8.536;2022-08-19T15:26:45;2.60;;;2.20;;
19173;SDS011;9719;49.322;8.536;2022-08-19T15:31:47;2.60;;;2.45;;
19173;SDS011;9719;49.322;8.536;2022-08-19T15:36:52;2.95;;;2.42;;
19173;SDS011;9719;49.322;8.536;2022-08-19T15:41:54;2.65;;;2.10;;
19173;SDS011;9719;49.322;8.536;2022-08-19T15:46:56;2.47;;;2.28;;
19173;SDS011;9719;49.322;8.536;2022-08-19T15:52:00;2.55;;;2.42;;
19173;SDS011;9719;49.322;8.536;2022-08-19T15:57:07;3.30;;;2.42;;
19173;SDS011;9719;49.322;8.536;2022-08-19T16:02:27;2.50;;;2.30;;
19173;SDS011;9719;49.322;8.536;2022-08-19T16:07:48;2.47;;;2.28;;
19173;SDS011;9719;49.322;8.536;2022-08-19T16:12:50;3.08;;;2.60;;
19173;SDS011;9719;49.322;8.536;2022-08-19T16:17:52;2.53;;;2.33;;
19173;SDS011;9719;49.322;8.536;2022-08-19T16:22:56;3.38;;;2.78;;
19173;SDS011;9719;49.322;8.536;2022-08-19T16:27:59;2.97;;;2.40;;
19173;SDS011;9719;49.322;8.536;2022-08-19T16:33:01;3.00;;;2.80;;
19173;SDS011;9719;49.322;8.536;2022-08-19T16:38:16;2.58;;;2.38;;
19173;SDS011;9719;49.322;8.536;2022-08-19T16:43:35;2.95;;;2.40;;
19173;SDS011;9719;49.322;8.536;2022-08-19T16:48:42;3.42;;;2.70;;
19173;SDS011;9719;49.322;8.536;2022-08-19T16:53:46;22.00;;;3.33;;
19173;SDS011;9719;49.322;8.536;2022-08-19T16:58:51;2.50;;;2.30;;
19173;SDS011;9719;49.322;8.536;2022-08-19T17:03:53;3.13;;;2.83;;
19173;SDS011;9719;49.322;8.536;2022-08-19T17:08:57;3.00;;;2.53;;
19173;SDS011;9719;49.322;8.536;2022-08-19T17:14:00;2.75;;;2.55;;
19173;SDS011;9719;49.322;8.536;2022-08-19T17:19:04;2.10;;;2.00;;
19173;SDS011;9719;49.322;8.536;2022-08-19T17:24:09;2.90;;;2.58;;
19173;SDS011;9719;49.322;8.536;2022-08-19T17:29:11;3.70;;;3.08;;
19173;SDS011;9719;49.322;8.536;2022-08-19T17:34:13;3.15;;;2.85;;
19173;SDS011;9719;49.322;8.536;2022-08-19T17:39:17;3.05;;;2.35;;
19173;SDS011;9719;49.322;8.536;2022-08-19T17:44:19;2.63;;;2.42;;
19173;SDS011;9719;49.322;8.536;2022-08-19T17:49:21;2.28;;;2.10;;
19173;SDS011;9719;49.322;8.536;2022-08-19T17:54:24;3.00;;;2.60;;
19173;SDS011;9719;49.322;8.536;2022-08-19T17:59:26;4.35;;;2.80;;
19173;SDS011;9719;49.322;8.536;2022-08-19T18:04:31;2.75;;;2.55;;
19173;SDS011;9719;49.322;8.536;2022-08-19T18:09:55;3.05;;;2.80;;
19173;SDS011;9719;49.322;8.536;2022-08-19T18:14:58;3.15;;;2.95;;
19173;SDS011;9719;49.322;8.536;2022-08-19T18:20:07;4.10;;;3.05;;
19173;SDS011;9719;49.322;8.536;2022-08-19T18:25:18;5.63;;;3.35;;
19173;SDS011;9719;49.322;8.536;2022-08-19T18:30:36;4.30;;;3.05;;
19173;SDS011;9719;49.322;8.536;2022-08-19T18:35:52;3.33;;;3.13;;
19173;SDS011;9719;49.322;8.536;2022-08-19T18:41:12;2.95;;;2.75;;
19173;SDS011;9719;49.322;8.536;2022-08-19T18:46:33;3.67;;;3.22;;
19173;SDS011;9719;49.322;8.536;2022-08-19T18:51:55;3.25;;;2.95;;
19173;SDS011;9719;49.322;8.536;2022-08-19T18:57:06;3.38;;;3.08;;
19173;SDS011;9719;49.322;8.536;2022-08-19T19:02:08;3.38;;;3.08;;
19173;SDS011;9719;49.322;8.536;2022-08-19T19:07:11;3.60;;;3.25;;
19173;SDS011;9719;49.322;8.536;2022-08-19T19:12:15;3.13;;;2.78;;
19173;SDS011;9719;49.322;8.536;2022-08-19T19:17:25;3.15;;;2.88;;
19173;SDS011;9719;49.322;8.536;2022-08-19T19:22:27;3.97;;;2.90;;
19173;SDS011;9719;49.322;8.536;2022-08-19T19:27:31;5.03;;;3.42;;
19173;SDS011;9719;49.322;8.536;2022-08-19T19:32:33;4.05;;;3.47;;
19173;SDS011;9719;49.322;8.536;2022-08-19T19:37:37;4.05;;;3.72;;
19173;SDS011;9719;49.322;8.536;2022-08-19T19:42:40;3.83;;;3.42;;
19173;SDS011;9719;49.322;8.536;2022-08-19T19:47:42;4.93;;;3.15;;
19173;SDS011;9719;49.322;8.536;2022-08-19T19:52:49;4.38;;;3.25;;
19173;SDS011;9719;49.322;8.536;2022-08-19T19:57:53;4.05;;;3.55;;
19173;SDS011;9719;49.322;8.536;2022-08-19T20:02:56;4.28;;;3.90;;
19173;SDS011;9719;49.322;8.536;2022-08-19T20:07:59;4.00;;;3.70;;
19173;SDS011;9719;49.322;8.536;2022-08-19T20:13:20;3.78;;;3.42;;
19173;SDS011;9719;49.322;8.536;2022-08-19T20:18:24;3.78;;;3.42;;
19173;SDS011;9719;49.322;8.536;2022-08-19T20:23:27;4.05;;;3.55;;
19173;SDS011;9719;49.322;8.536;2022-08-19T20:28:30;3.75;;;3.33;;
19173;SDS011;9719;49.322;8.536;2022-08-19T20:33:32;4.50;;;4.10;;
19173;SDS011;9719;49.322;8.536;2022-08-19T20:38:34;4.00;;;3.63;;
19173;SDS011;9719;49.322;8.536;2022-08-19T20:43:40;4.40;;;3.78;;
19173;SDS011;9719;49.322;8.536;2022-08-19T20:48:42;4.05;;;3.63;;
19173;SDS011;9719;49.322;8.536;2022-08-19T20:53:44;3.90;;;3.28;;
19173;SDS011;9719;49.322;8.536;2022-08-19T20:58:47;4.45;;;3.13;;
19173;SDS011;9719;49.322;8.536;2022-08-19T21:03:50;5.63;;;3.88;;
19173;SDS011;9719;49.322;8.536;2022-08-19T21:08:51;3.97;;;3.67;;
19173;SDS011;9719;49.322;8.536;2022-08-19T21:13:55;4.13;;;3.70;;
19173;SDS011;9719;49.322;8.536;2022-08-19T21:18:57;4.05;;;3.65;;
19173;SDS011;9719;49.322;8.536;2022-08-19T21:23:59;3.95;;;3.60;;
19173;SDS011;9719;49.322;8.536;2022-08-19T21:29:02;4.93;;;3.92;;
19173;SDS011;9719;49.322;8.536;2022-08-19T21:34:04;4.30;;;3.60;;
19173;SDS011;9719;49.322;8.536;2022-08-19T21:39:06;5.05;;;4.50;;
19173;SDS011;9719;49.322;8.536;2022-08-19T21:44:10;4.95;;;4.45;;
19173;SDS011;9719;49.322;8.536;2022-08-19T21:49:12;5.47;;;4.20;;
19173;SDS011;9719;49.322;8.536;2022-08-19T21:54:14;5.18;;;3.75;;
19173;SDS011;9719;49.322;8.536;2022-08-19T21:59:17;4.15;;;3.78;;
19173;SDS011;9719;49.322;8.536;2022-08-19T22:04:20;4.38;;;3.97;;
19173;SDS011;9719;49.322;8.536;2022-08-19T22:09:21;3.65;;;3.35;;
19173;SDS011;9719;49.322;8.536;2022-08-19T22:14:25;4.40;;;4.00;;
19173;SDS011;9719;49.322;8.536;2022-08-19T22:19:27;5.75;;;3.75;;
19173;SDS011;9719;49.322;8.536;2022-08-19T22:24:29;3.88;;;3.45;;
19173;SDS011;9719;49.322;8.536;2022-08-19T22:29:32;4.22;;;3.80;;
19173;SDS011;9719;49.322;8.536;2022-08-19T22:34:35;3.92;;;3.63;;
19173;SDS011;9719;49.322;8.536;2022-08-19T22:39:37;4.32;;;3.10;;
19173;SDS011;9719;49.322;8.536;2022-08-19T22:44:40;4.10;;;3.55;;
19173;SDS011;9719;49.322;8.536;2022-08-19T22:49:43;3.72;;;3.10;;
19173;SDS011;9719;49.322;8.536;2022-08-19T22:54:45;4.60;;;2.92;;
19173;SDS011;9719;49.322;8.536;2022-08-19T22:59:51;3.38;;;2.78;;
19173;SDS011;9719;49.322;8.536;2022-08-19T23:04:54;5.30;;;3.28;;
19173;SDS011;9719;49.322;8.536;2022-08-19T23:09:56;3.53;;;3.10;;
19173;SDS011;9719;49.322;8.536;2022-08-19T23:15:01;4.28;;;3.50;;
19173;SDS011;9719;49.322;8.536;2022-08-19T23:20:06;3.97;;;3.47;;
19173;SDS011;9719;49.322;8.536;2022-08-19T23:25:11;4.13;;;3.30;;
19173;SDS011;9719;49.322;8.536;2022-08-19T23:30:17;3.13;;;2.92;;
19173;SDS011;9719;49.322;8.536;2022-08-19T23:35:26;3.00;;;2.72;;
19173;SDS011;9719;49.322;8.536;2022-08-19T23:40:33;3.28;;;2.97;;
19173;SDS011;9719;49.322;8.536;2022-08-19T23:45:37;4.63;;;2.88;;
19173;SDS011;9719;49.322;8.536;2022-08-19T23:50:41;3.42;;;3.13;;
19173;SDS011;9719;49.322;8.536;2022-08-19T23:55:45;3.10;;;2.70;;
